Terminal Aerodrome Forecast
Issued by NWS Upton, NY

Home | Current Version | Previous Version | Text Only | Print | Product List | Glossary On
Versions: 1 2 3 4 5 6 7 8 9 10 11 12 13 14 15 16 17 18 19 20 21 22 23 24 25 26 27 28 29 30 31 32 33 34 35
689
FTUS41 KOKX 240830 AAA
TAFJFK
TAF AMD
KJFK 240830Z 2409/2512 18006KT P6SM SCT005 SCT050
     FM241300 19009KT P6SM SCT035 SCT080
     FM241900 18012KT P6SM SCT035 SCT250
     FM250200 18008KT P6SM SCT015 SCT035 BKN250
     FM250600 16005KT P6SM BKN010=

USA.gov is the U.S. government's official web portal to all federal, state and local government web resources and services.